Time;durP1;ratioP1;P1;durP2;ratioP2;P2;SDS_P1;SDS_P2;PMS_P1;PMS_P2;Temp;Humidity;BMP_temperature;BMP_pressure;BME280_temperature;BME280_humidity;BME280_pressure;Samples;Min_cycle;Max_cycle;Signal;HPM_P1;HPM_P2
2021/09/23 00:02:06;84445.00;0.28;146.71;0.00;0.00;0.62;;;;;17.90;1.00;;;;;;2267373;61;1414;-88
2021/09/23 00:04:34;63027.00;0.21;109.71;0.00;0.00;0.62;;;;;17.70;1.00;;;;;;2278175;61;1990;-88
2021/09/23 00:07:02;130629.00;0.44;226.41;0.00;0.00;0.62;;;;;17.90;1.00;;;;;;2278231;61;1163;-88
2021/09/23 00:09:30;273540.00;0.91;472.43;0.00;0.00;0.62;;;;;17.90;1.00;;;;;;2267209;61;1192;-88
2021/09/23 00:11:57;215428.00;0.72;372.48;0.00;0.00;0.62;;;;;18.10;1.00;;;;;;2270678;61;1380;-88
2021/09/23 00:14:24;127505.00;0.43;221.03;0.00;0.00;0.62;;;;;18.00;1.00;;;;;;2278249;61;1143;-88
2021/09/23 00:16:52;127808.00;0.43;221.55;0.00;0.00;0.62;;;;;18.00;1.00;;;;;;2278625;61;1112;-87
2021/09/23 00:19:20;108063.00;0.36;187.49;0.00;0.00;0.62;;;;;17.90;1.00;;;;;;2273585;61;1273;-88
2021/09/23 00:21:47;159732.00;0.53;276.58;0.00;0.00;0.62;;;;;17.60;1.00;;;;;;2273456;61;1330;-88
2021/09/23 00:24:14;172534.00;0.58;298.63;0.00;0.00;0.62;;;;;17.80;1.00;;;;;;2273792;61;1923;-88
2021/09/23 00:26:42;160819.00;0.54;278.45;0.00;0.00;0.62;;;;;18.00;1.00;;;;;;2267945;61;1172;-88
2021/09/23 00:29:09;115124.00;0.38;199.67;0.00;0.00;0.62;;;;;17.90;1.00;;;;;;2268899;61;978;-87
2021/09/23 00:31:39;169248.00;0.56;292.97;0.00;0.00;0.62;;;;;17.90;1.00;;;;;;2268379;61;1282;-87
2021/09/23 00:34:06;172822.00;0.58;299.13;0.00;0.00;0.62;;;;;17.80;1.00;;;;;;2273677;61;1172;-88
2021/09/23 00:36:33;163951.00;0.55;283.85;0.00;0.00;0.62;;;;;17.80;1.00;;;;;;2274313;61;1201;-88
2021/09/23 00:39:00;302677.00;1.01;522.52;0.00;0.00;0.62;;;;;17.60;1.00;;;;;;2279045;61;1123;-88
2021/09/23 00:41:27;114084.00;0.38;197.88;0.00;0.00;0.62;;;;;17.70;1.00;;;;;;2279504;61;1279;-87
2021/09/23 00:43:55;80530.00;0.27;139.95;0.00;0.00;0.62;;;;;17.70;1.00;;;;;;2280302;60;1927;-88
2021/09/23 00:46:22;120904.00;0.40;209.64;0.00;0.00;0.62;;;;;17.50;1.00;;;;;;2280598;61;1124;-88
2021/09/23 00:48:51;97149.00;0.32;168.65;0.00;0.00;0.62;;;;;17.70;1.00;;;;;;2273610;60;1003;-87
2021/09/23 00:51:19;168481.00;0.56;291.65;0.00;0.00;0.62;;;;;17.50;1.00;;;;;;2272189;61;1435;-86
2021/09/23 00:53:48;313631.00;1.05;541.35;0.00;0.00;0.62;;;;;17.30;1.00;;;;;;2265566;61;1102;-86
2021/09/23 00:56:18;188569.00;0.63;326.24;0.00;0.00;0.62;;;;;17.30;1.00;;;;;;2272190;61;1087;-87
2021/09/23 00:58:45;110636.00;0.37;191.93;0.00;0.00;0.62;;;;;16.90;1.00;;;;;;2263867;61;1180;-87
2021/09/23 01:01:14;182807.00;0.61;316.32;0.00;0.00;0.62;;;;;17.20;1.00;;;;;;2264069;61;1416;-86
2021/09/23 01:03:44;451389.00;1.50;778.17;52414.00;0.17;91.36;;;;;17.20;1.00;;;;;;2257265;61;1995;-87
2021/09/23 01:06:11;233422.00;0.78;403.44;0.00;0.00;0.62;;;;;17.00;1.00;;;;;;2263710;61;1116;-86
2021/09/23 01:08:38;152340.00;0.51;263.84;0.00;0.00;0.62;;;;;17.30;1.00;;;;;;2265250;61;1015;-86
2021/09/23 01:11:08;288301.00;0.96;497.81;0.00;0.00;0.62;;;;;17.50;1.00;;;;;;2268739;61;1417;-87
2021/09/23 01:13:35;374947.00;1.25;646.74;0.00;0.00;0.62;;;;;17.40;1.00;;;;;;2265453;61;1007;-86
2021/09/23 01:16:02;283605.00;0.95;489.74;0.00;0.00;0.62;;;;;17.10;1.00;;;;;;2273373;60;1149;-87
2021/09/23 01:18:30;134143.00;0.45;232.47;0.00;0.00;0.62;;;;;17.20;1.00;;;;;;2280335;61;1147;-88
2021/09/23 01:20:57;103973.00;0.35;180.43;0.00;0.00;0.62;;;;;17.00;1.00;;;;;;2280231;60;2030;-88
2021/09/23 01:23:25;452961.00;1.51;780.88;0.00;0.00;0.62;;;;;16.40;1.00;;;;;;2280594;60;1915;-87
2021/09/23 01:25:52;221929.00;0.74;383.66;0.00;0.00;0.62;;;;;16.20;1.00;;;;;;2280736;60;1126;-86
2021/09/23 01:28:19;167086.00;0.56;289.25;0.00;0.00;0.62;;;;;15.90;1.00;;;;;;2273592;60;971;-88
2021/09/23 01:30:46;229486.00;0.76;396.66;0.00;0.00;0.62;;;;;15.80;1.00;;;;;;2273566;60;960;-87
2021/09/23 01:33:13;213829.00;0.71;369.72;0.00;0.00;0.62;;;;;15.60;1.00;;;;;;2280600;60;1695;-87
2021/09/23 01:35:40;721131.00;2.40;1243.90;56165.00;0.19;97.85;;;;;15.40;1.00;;;;;;2280676;60;1588;-87
2021/09/23 01:38:09;1041117.00;3.47;1805.43;37217.00;0.12;65.07;;;;;15.30;1.00;;;;;;2280664;60;1103;-87
2021/09/23 01:40:37;625071.00;2.08;1077.53;28515.00;0.10;50.01;;;;;15.50;1.00;;;;;;2280678;60;1121;-87
2021/09/23 01:43:04;987804.00;3.29;1710.88;19770.00;0.07;34.87;;;;;15.70;1.00;;;;;;2280699;60;1296;-86
2021/09/23 01:45:31;947456.00;3.16;1639.63;93561.00;0.31;162.46;;;;;15.90;1.00;;;;;;2280565;60;2001;-88
2021/09/23 01:47:58;1006908.00;3.36;1744.71;104058.00;0.35;180.58;;;;;16.20;1.00;;;;;;2280688;60;938;-87
2021/09/23 01:50:26;1450878.00;4.84;2551.02;169558.00;0.57;293.51;;;;;16.00;1.00;;;;;;2280637;60;1017;-87
2021/09/23 01:52:53;1427946.00;4.76;2508.26;222337.00;0.74;384.36;;;;;16.10;1.00;;;;;;2280553;60;1289;-87
2021/09/23 01:55:20;1361353.00;4.54;2384.84;176763.00;0.59;305.91;;;;;15.70;1.00;;;;;;2280623;60;970;-87
2021/09/23 01:57:48;1124567.00;3.75;1954.41;4934.00;0.02;9.17;;;;;15.70;1.00;;;;;;2280627;60;1663;-86
2021/09/23 02:00:16;1581377.00;5.27;2797.20;174539.00;0.58;302.08;;;;;15.40;1.00;;;;;;2280673;60;1074;-86
2021/09/23 02:02:43;388540.00;1.30;670.10;90605.00;0.30;157.35;;;;;14.90;1.00;;;;;;2280669;60;1357;-87
2021/09/23 02:05:11;299332.00;1.00;516.77;82003.00;0.27;142.50;;;;;15.20;1.00;;;;;;2279849;61;2008;-88
2021/09/23 02:07:38;282110.00;0.94;487.17;73906.00;0.25;128.51;;;;;15.30;1.00;;;;;;2269303;61;1156;-89
2021/09/23 02:10:05;279266.00;0.93;482.28;79644.00;0.27;138.42;;;;;15.40;1.00;;;;;;2273072;61;1167;-88
2021/09/23 02:12:32;386470.00;1.29;666.55;82776.00;0.28;143.83;;;;;15.50;1.00;;;;;;2280140;61;1376;-88
2021/09/23 02:15:00;367806.00;1.23;634.47;88105.00;0.29;153.04;;;;;15.40;1.00;;;;;;2280151;61;1700;-89
2021/09/23 02:17:29;172174.00;0.57;298.01;0.00;0.00;0.62;;;;;15.70;1.00;;;;;;2272823;61;1065;-88
2021/09/23 02:19:56;179709.00;0.60;310.99;0.00;0.00;0.62;;;;;15.80;1.00;;;;;;2269252;61;1124;-88
2021/09/23 02:22:24;98580.00;0.33;171.12;0.00;0.00;0.62;;;;;15.90;1.00;;;;;;2272514;61;1415;-88
2021/09/23 02:24:51;161232.00;0.54;279.16;0.00;0.00;0.62;;;;;16.40;1.00;;;;;;2271833;61;1918;-88
2021/09/23 02:27:18;120576.00;0.40;209.08;0.00;0.00;0.62;;;;;16.90;1.00;;;;;;2279282;61;1147;-88
2021/09/23 02:29:46;253536.00;0.85;438.03;0.00;0.00;0.62;;;;;16.70;1.00;;;;;;2270616;61;1073;-88
2021/09/23 02:32:14;217853.00;0.73;376.65;0.00;0.00;0.62;;;;;16.40;1.00;;;;;;2271099;61;1279;-89
2021/09/23 02:34:41;86498.00;0.29;150.26;0.00;0.00;0.62;;;;;16.60;1.00;;;;;;2262614;61;1088;-89
2021/09/23 02:37:08;260222.00;0.87;449.53;0.00;0.00;0.62;;;;;16.80;1.00;;;;;;2253002;61;1181;-88
2021/09/23 02:39:41;200873.00;0.67;347.43;0.00;0.00;0.62;;;;;17.10;1.00;;;;;;2253148;61;1188;-89
2021/09/23 02:42:08;1216797.00;4.06;2120.62;167362.00;0.56;289.72;;;;;17.20;1.00;;;;;;2263017;61;1294;-89
2021/09/23 02:44:35;3418299.00;11.39;7059.58;635526.00;2.12;1095.60;;;;;17.20;1.00;;;;;;2259836;61;1927;-88
2021/09/23 02:47:01;388610.00;1.30;670.23;86582.00;0.29;150.41;;;;;17.10;1.00;;;;;;2264646;61;1167;-88
2021/09/23 02:49:30;119047.00;0.40;206.44;0.00;0.00;0.62;;;;;17.10;1.00;;;;;;2261330;61;1095;-89
2021/09/23 02:51:59;71693.00;0.24;124.69;0.00;0.00;0.62;;;;;16.90;1.00;;;;;;2272542;61;1353;-89
2021/09/23 02:54:26;267995.00;0.89;462.90;0.00;0.00;0.62;;;;;17.00;1.00;;;;;;2272698;61;1086;-88
2021/09/23 02:56:53;111230.00;0.37;192.95;0.00;0.00;0.62;;;;;17.10;1.00;;;;;;2272721;61;1251;-88
2021/09/23 02:59:20;117397.00;0.39;203.59;0.00;0.00;0.62;;;;;17.00;1.00;;;;;;2279966;61;1041;-88
2021/09/23 03:01:47;125096.00;0.42;216.87;0.00;0.00;0.62;;;;;17.10;1.00;;;;;;2280108;61;1427;-88
2021/09/23 03:04:14;192236.00;0.64;332.56;0.00;0.00;0.62;;;;;17.30;1.00;;;;;;2279979;61;1994;-89
2021/09/23 03:06:42;148444.00;0.49;257.13;0.00;0.00;0.62;;;;;17.50;1.00;;;;;;2272846;61;1164;-89
2021/09/23 03:09:09;9431.00;0.03;16.96;0.00;0.00;0.62;;;;;17.60;1.00;;;;;;2280297;61;993;-88
2021/09/23 03:11:36;199925.00;0.67;345.79;0.00;0.00;0.62;;;;;17.40;1.00;;;;;;2272942;61;1449;-88
2021/09/23 03:14:03;445136.00;1.48;767.42;7524.00;0.03;13.66;;;;;17.20;1.00;;;;;;2280054;61;1076;-89
2021/09/23 03:16:30;151896.00;0.51;263.08;0.00;0.00;0.62;;;;;17.00;1.00;;;;;;2272993;61;1057;-89
2021/09/23 03:18:57;733317.00;2.44;1265.06;33047.00;0.11;57.86;;;;;17.30;1.00;;;;;;2272932;61;1198;-89
2021/09/23 03:21:24;1368996.00;4.56;2398.94;135500.00;0.45;234.81;;;;;17.40;1.00;;;;;;2280200;61;1462;-88
2021/09/23 03:23:52;968754.00;3.23;1677.21;49074.00;0.16;85.58;;;;;17.40;1.00;;;;;;2280380;60;1140;-87
2021/09/23 03:26:19;1540934.00;5.14;2720.38;110707.00;0.37;192.05;;;;;17.30;1.00;;;;;;2280284;60;1933;-87
2021/09/23 03:28:46;1592243.00;5.31;2817.92;78746.00;0.26;136.87;;;;;17.30;1.00;;;;;;2280070;61;1079;-88
2021/09/23 03:31:13;1540801.00;5.14;2720.13;141934.00;0.47;245.90;;;;;17.40;1.00;;;;;;2280138;60;1396;-89
2021/09/23 03:33:40;1380300.00;4.60;2419.84;235682.00;0.79;407.32;;;;;17.30;1.00;;;;;;2280032;60;1061;-89
2021/09/23 03:36:07;1258538.00;4.20;2196.42;152671.00;0.51;264.41;;;;;17.30;1.00;;;;;;2271368;61;970;-89
2021/09/23 03:38:34;1066327.00;3.55;1850.31;156099.00;0.52;270.32;;;;;17.20;1.00;;;;;;2267999;61;1152;-88
2021/09/23 03:41:02;117406024.00;391.35;65554088.00;86705.00;0.29;150.62;;;;;17.20;1.00;;;;;;2271389;61;1140;-89
2021/09/23 03:43:29;601660.00;2.01;1037.09;90750.00;0.30;157.60;;;;;17.00;1.00;;;;;;2267956;61;1070;-88
2021/09/23 03:45:58;425327.00;1.42;733.35;84768.00;0.28;147.27;;;;;16.20;1.00;;;;;;2271369;61;1985;-88
2021/09/23 03:48:25;400209.00;1.33;690.16;79288.00;0.26;137.81;;;;;15.30;1.00;;;;;;2271214;61;1131;-89
2021/09/23 03:50:52;472097.00;1.57;813.80;99767.00;0.33;173.17;;;;;15.40;1.00;;;;;;2271441;61;919;-88
2021/09/23 03:53:19;467959.00;1.56;806.68;76505.00;0.26;133.00;;;;;15.50;1.00;;;;;;2265729;61;1362;-88
2021/09/23 03:55:46;505028.00;1.68;870.48;78362.00;0.26;136.21;;;;;15.30;1.00;;;;;;2272769;61;1167;-88
2021/09/23 03:58:14;515626.00;1.72;888.73;87822.00;0.29;152.55;;;;;15.00;1.00;;;;;;2279842;61;1122;-88
2021/09/23 04:00:43;301881.00;1.01;521.15;0.00;0.00;0.62;;;;;15.60;1.00;;;;;;2279972;60;1142;-89
2021/09/23 04:03:10;382558.00;1.28;659.82;0.00;0.00;0.62;;;;;15.80;1.00;;;;;;2279339;61;1289;-88
2021/09/23 04:05:39;334734.00;1.12;577.62;0.00;0.00;0.62;;;;;15.80;1.00;;;;;;2279910;61;1919;-89
2021/09/23 04:08:06;297546.00;0.99;513.70;0.00;0.00;0.62;;;;;15.60;1.00;;;;;;2269594;61;966;-89
2021/09/23 04:10:33;240403.00;0.80;415.44;0.00;0.00;0.62;;;;;14.60;1.00;;;;;;2280034;61;984;-89
2021/09/23 04:13:00;543020.00;1.81;935.93;0.00;0.00;0.62;;;;;13.70;1.00;;;;;;2279993;61;1387;-88
2021/09/23 04:15:28;348618.00;1.16;601.49;0.00;0.00;0.62;;;;;13.20;1.00;;;;;;2279921;61;1110;-88
2021/09/23 04:17:55;331683.00;1.11;572.38;0.00;0.00;0.62;;;;;13.70;1.00;;;;;;2280766;60;1008;-87
2021/09/23 04:20:22;430302.00;1.43;741.90;0.00;0.00;0.62;;;;;14.30;1.00;;;;;;2280714;60;1119;-88
2021/09/23 04:22:49;401728.00;1.34;692.78;0.00;0.00;0.62;;;;;14.60;1.00;;;;;;2280583;60;1700;-88
2021/09/23 04:25:16;478258.00;1.59;824.40;0.00;0.00;0.62;;;;;14.90;1.00;;;;;;2280688;60;1992;-89
2021/09/23 04:27:43;291548.00;0.97;503.39;0.00;0.00;0.62;;;;;14.90;1.00;;;;;;2280746;60;1083;-88
2021/09/23 04:30:11;169456.00;0.56;293.33;0.00;0.00;0.62;;;;;15.10;1.00;;;;;;2267994;61;1000;-89
2021/09/23 04:32:40;276881.00;0.92;478.17;0.00;0.00;0.62;;;;;15.20;1.00;;;;;;2268026;61;1346;-87
2021/09/23 04:35:08;198004.00;0.66;342.49;0.00;0.00;0.62;;;;;15.70;1.00;;;;;;2267720;61;1190;-89
2021/09/23 04:37:35;324071.00;1.08;559.30;0.00;0.00;0.62;;;;;16.10;1.00;;;;;;2268055;61;1015;-88
2021/09/23 04:40:02;240471.00;0.80;415.56;0.00;0.00;0.62;;;;;16.50;1.00;;;;;;2256016;61;970;-89
2021/09/23 04:42:29;167461.00;0.56;289.89;0.00;0.00;0.62;;;;;16.80;1.00;;;;;;2252541;61;1352;-87
2021/09/23 04:44:56;244676.00;0.82;422.79;0.00;0.00;0.62;;;;;17.00;1.00;;;;;;2255772;61;1993;-87
2021/09/23 04:47:23;214750.00;0.72;371.31;0.00;0.00;0.62;;;;;16.10;1.00;;;;;;2257526;61;1081;-87
2021/09/23 04:49:52;317530.00;1.06;548.05;0.00;0.00;0.62;;;;;15.40;1.00;;;;;;2267960;61;1005;-88
2021/09/23 04:52:18;267992.00;0.89;462.89;0.00;0.00;0.62;;;;;15.20;1.00;;;;;;2267919;61;1246;-87
2021/09/23 04:54:45;454504.00;1.52;783.53;0.00;0.00;0.62;;;;;14.90;1.00;;;;;;2267919;61;1070;-88
2021/09/23 04:57:12;536290.00;1.79;924.33;0.00;0.00;0.62;;;;;13.90;1.00;;;;;;2269387;60;1077;-87
2021/09/23 04:59:39;418712.00;1.40;721.98;0.00;0.00;0.62;;;;;13.00;1.00;;;;;;2280578;60;1018;-87
2021/09/23 05:02:06;378425.00;1.26;652.72;0.00;0.00;0.62;;;;;12.60;1.00;;;;;;2273383;60;1378;-87
2021/09/23 05:04:33;614676.00;2.05;1059.57;0.00;0.00;0.62;;;;;12.10;1.00;;;;;;2273411;61;1994;-88
2021/09/23 05:07:02;457252.00;1.52;788.26;0.00;0.00;0.62;;;;;12.00;1.00;;;;;;2280466;60;946;-87
2021/09/23 05:09:30;488485.00;1.63;842.00;0.00;0.00;0.62;;;;;11.90;2.10;;;;;;2273629;61;968;-87
2021/09/23 05:11:57;484823.00;1.62;835.70;0.00;0.00;0.62;;;;;12.70;1.60;;;;;;2280704;60;1378;-88
2021/09/23 05:14:24;565297.00;1.88;974.34;0.00;0.00;0.62;;;;;13.90;3.90;;;;;;2280742;60;909;-88
2021/09/23 05:16:51;1402222.00;4.67;2460.45;135018.00;0.45;233.98;;;;;14.80;2.40;;;;;;2273539;60;964;-88
2021/09/23 05:19:18;1632945.00;5.44;2895.87;180116.00;0.60;311.69;;;;;15.40;1.00;;;;;;2280695;60;1126;-88
2021/09/23 05:21:45;1737207.00;5.79;3097.95;189256.00;0.63;327.43;;;;;15.90;1.00;;;;;;2280663;60;1381;-88
2021/09/23 05:24:16;1113803.00;3.71;1935.13;107130.00;0.36;185.88;;;;;16.20;1.00;;;;;;2272012;61;991;-86
2021/09/23 05:26:44;843236.00;2.81;1456.63;109950.00;0.37;190.74;;;;;16.20;1.00;;;;;;2271907;61;1936;-87
2021/09/23 05:29:10;542450.00;1.81;934.95;75264.00;0.25;130.86;;;;;16.10;1.00;;;;;;2263827;61;997;-87
2021/09/23 05:31:39;534942.00;1.78;922.01;95610.00;0.32;165.99;;;;;15.90;1.00;;;;;;2263809;61;1369;-87
2021/09/23 05:34:30;636275.00;2.12;1096.90;90466.00;0.30;157.11;;;;;15.90;1.00;;;;;;2263905;61;1035;-87
2021/09/23 05:36:57;642735.00;2.14;1108.07;74887.00;0.25;130.20;;;;;16.10;1.00;;;;;;2263823;61;1024;-89
2021/09/23 05:39:25;371158.00;1.24;640.23;0.00;0.00;0.62;;;;;16.40;1.00;;;;;;2263924;61;962;-87
2021/09/23 05:41:52;307425.00;1.02;530.68;0.00;0.00;0.62;;;;;16.40;1.00;;;;;;2266436;61;1408;-88
2021/09/23 05:44:23;268905.00;0.90;464.46;0.00;0.00;0.62;;;;;16.30;1.00;;;;;;2271878;61;1102;-87
2021/09/23 05:46:50;228765.00;0.76;395.42;0.00;0.00;0.62;;;;;16.10;1.00;;;;;;2264506;60;2025;-89
2021/09/23 05:49:17;375310.00;1.25;647.36;0.00;0.00;0.62;;;;;16.30;1.00;;;;;;2280390;60;1022;-88
2021/09/23 05:51:44;365727.00;1.22;630.89;0.00;0.00;0.62;;;;;16.30;1.00;;;;;;2280385;60;1370;-88
2021/09/23 05:54:11;339558.00;1.13;585.91;0.00;0.00;0.62;;;;;16.00;1.00;;;;;;2280420;60;1006;-88
2021/09/23 05:56:41;403550.00;1.35;695.91;0.00;0.00;0.62;;;;;16.00;1.00;;;;;;2280460;60;929;-87
2021/09/23 05:59:08;386682.00;1.29;666.91;0.00;0.00;0.62;;;;;15.20;1.00;;;;;;2280403;60;1665;-88
2021/09/23 06:01:35;373052.00;1.24;643.48;0.00;0.00;0.62;;;;;14.20;1.00;;;;;;2280394;60;1285;-88
2021/09/23 06:04:02;376219.00;1.25;648.93;0.00;0.00;0.62;;;;;14.00;1.00;;;;;;2280402;60;1061;-88
2021/09/23 06:06:29;532863.00;1.78;918.42;0.00;0.00;0.62;;;;;14.70;1.00;;;;;;2280340;60;1923;-87
2021/09/23 06:09:00;477819.00;1.59;823.64;0.00;0.00;0.62;;;;;15.00;1.00;;;;;;2280258;60;1050;-90
2021/09/23 06:11:27;430198.00;1.43;741.73;0.00;0.00;0.62;;;;;14.50;1.00;;;;;;2280263;60;1469;-87
2021/09/23 06:13:55;345851.00;1.15;596.73;0.00;0.00;0.62;;;;;13.90;1.00;;;;;;2280402;60;1149;-87
2021/09/23 06:16:23;517427.00;1.72;891.83;0.00;0.00;0.62;;;;;13.90;1.00;;;;;;2280346;60;1045;-87
2021/09/23 06:18:50;614963.00;2.05;1060.06;0.00;0.00;0.62;;;;;13.60;1.00;;;;;;2280082;60;1106;-87
2021/09/23 06:21:16;442742.00;1.48;763.30;0.00;0.00;0.62;;;;;13.90;1.00;;;;;;2280286;60;1378;-88
2021/09/23 06:23:43;507120.00;1.69;874.08;0.00;0.00;0.62;;;;;13.40;1.00;;;;;;2273037;60;960;-88
2021/09/23 06:26:10;479461.00;1.60;826.47;0.00;0.00;0.62;;;;;13.10;1.00;;;;;;2280234;60;2012;-89
2021/09/23 06:28:37;472211.00;1.57;813.99;0.00;0.00;0.62;;;;;13.40;1.00;;;;;;2280305;60;1083;-88
2021/09/23 06:31:05;305090.00;1.02;526.67;0.00;0.00;0.62;;;;;13.30;1.00;;;;;;2280330;60;1417;-89
2021/09/23 06:33:32;380792.00;1.27;656.79;0.00;0.00;0.62;;;;;13.90;1.00;;;;;;2280376;60;1021;-88
2021/09/23 06:36:00;517161.00;1.72;891.38;0.00;0.00;0.62;;;;;14.30;1.00;;;;;;2271614;61;1021;-87
2021/09/23 06:38:26;453940.00;1.51;782.56;0.00;0.00;0.62;;;;;14.50;1.00;;;;;;2267377;61;939;-87
2021/09/23 06:40:55;332985.00;1.11;574.62;0.00;0.00;0.62;;;;;14.80;1.00;;;;;;2260881;61;1208;-86
2021/09/23 06:43:23;452101.00;1.51;779.40;10360.00;0.03;18.57;;;;;15.00;1.00;;;;;;2267540;61;1440;-87
2021/09/23 06:45:50;498643.00;1.66;859.49;0.00;0.00;0.62;;;;;14.80;1.00;;;;;;2267493;61;1994;-86
2021/09/23 06:48:18;935865.00;3.12;1619.20;204272.00;0.68;353.28;;;;;15.60;1.00;;;;;;2267638;61;1082;-87
2021/09/23 06:50:45;179114.00;0.60;309.96;0.00;0.00;0.62;;;;;17.00;1.00;;;;;;2267688;61;1008;-88
2021/09/23 06:53:12;275756.00;0.92;476.24;0.00;0.00;0.62;;;;;18.00;1.00;;;;;;2260781;61;1436;-86
2021/09/23 06:55:39;275277.00;0.92;475.42;27701.00;0.09;48.60;;;;;18.00;1.00;;;;;;2272190;61;1143;-87
2021/09/23 06:58:06;333197.00;1.11;574.98;0.00;0.00;0.62;;;;;18.50;1.00;;;;;;2272296;61;1006;-87
2021/09/23 07:00:33;113498.00;0.38;196.87;0.00;0.00;0.62;;;;;19.60;1.00;;;;;;2275700;61;1150;-88
2021/09/23 07:03:00;249311.00;0.83;430.77;0.00;0.00;0.62;;;;;19.90;1.00;;;;;;2268845;61;1306;-88
2021/09/23 07:05:28;198809.00;0.66;343.87;0.00;0.00;0.62;;;;;20.30;1.00;;;;;;2265561;61;2004;-87
2021/09/23 07:07:55;197373.00;0.66;341.40;0.00;0.00;0.62;;;;;20.90;1.00;;;;;;2275712;61;1118;-87
2021/09/23 07:10:22;835469.00;2.78;1443.05;61824.00;0.21;107.63;;;;;21.40;1.00;;;;;;2276218;61;1141;-88
2021/09/23 07:12:49;1886337.00;6.29;3393.49;334059.00;1.11;576.46;;;;;21.30;1.00;;;;;;2280312;61;1412;-88
2021/09/23 07:15:16;1153606.00;3.85;2006.56;218849.00;0.73;378.36;;;;;21.10;1.00;;;;;;2280311;61;1652;-88
2021/09/23 07:17:43;340641.00;1.14;587.78;87814.00;0.29;152.53;;;;;22.00;1.00;;;;;;2280305;61;1066;-88
2021/09/23 07:20:11;291901.00;0.97;504.00;0.00;0.00;0.62;;;;;22.00;1.00;;;;;;2280356;61;1093;-88
2021/09/23 07:22:39;234100.00;0.78;404.60;0.00;0.00;0.62;;;;;21.60;1.00;;;;;;2280269;61;1307;-87
2021/09/23 07:25:07;209818.00;0.70;362.82;0.00;0.00;0.62;;;;;21.10;1.00;;;;;;2276578;61;960;-87
2021/09/23 07:27:34;371884.00;1.24;641.48;0.00;0.00;0.62;;;;;20.60;1.00;;;;;;2280287;61;2014;-88
2021/09/23 07:30:01;294506.00;0.98;508.48;0.00;0.00;0.62;;;;;20.30;1.00;;;;;;2276511;61;938;-88
2021/09/23 07:32:28;214917.00;0.72;371.60;0.00;0.00;0.62;;;;;20.40;1.00;;;;;;2276380;61;1376;-89
2021/09/23 07:34:58;251469.00;0.84;434.48;0.00;0.00;0.62;;;;;20.30;1.00;;;;;;2279778;61;1034;-88
2021/09/23 07:37:25;190421.00;0.63;329.43;0.00;0.00;0.62;;;;;20.50;1.00;;;;;;2276422;61;966;-89
2021/09/23 07:39:53;155012.00;0.52;268.44;0.00;0.00;0.62;;;;;20.50;1.00;;;;;;2280295;61;1133;-88
2021/09/23 07:42:20;217297.00;0.72;375.69;240.00;0.00;1.04;;;;;20.40;1.00;;;;;;2280215;61;1452;-88
2021/09/23 07:44:47;71668.00;0.24;124.64;0.00;0.00;0.62;;;;;20.70;1.00;;;;;;2280063;61;1111;-89
2021/09/23 07:47:14;265464.00;0.88;458.54;0.00;0.00;0.62;;;;;21.00;1.00;;;;;;2279881;61;1986;-89
2021/09/23 07:49:41;244772.00;0.82;422.96;0.00;0.00;0.62;;;;;21.20;1.00;;;;;;2279617;61;1199;-88
2021/09/23 07:52:08;292479.00;0.97;504.99;0.00;0.00;0.62;;;;;21.40;1.00;;;;;;2280198;61;1407;-89
2021/09/23 07:54:35;211162.00;0.70;365.14;0.00;0.00;0.62;;;;;21.40;1.00;;;;;;2280820;61;1129;-89
2021/09/23 07:57:04;470891.00;1.57;811.72;40889.00;0.14;71.43;;;;;21.20;1.00;;;;;;2280863;61;1069;-87
2021/09/23 07:59:31;412623.00;1.38;711.51;13204.00;0.04;23.50;;;;;21.30;1.00;;;;;;2277037;61;1034;-88
2021/09/23 08:01:58;257210.00;0.86;444.35;0.00;0.00;0.62;;;;;21.80;1.00;;;;;;2280675;60;1352;-88
2021/09/23 08:04:24;211164.00;0.70;365.14;0.00;0.00;0.62;;;;;22.00;1.00;;;;;;2280625;60;1072;-88
2021/09/23 08:06:51;101368.00;0.34;175.93;0.00;0.00;0.62;;;;;22.10;1.00;;;;;;2273427;60;2014;-88
2021/09/23 08:09:18;624971.00;2.08;1077.36;177150.00;0.59;306.58;;;;;22.70;1.00;;;;;;2280930;60;1298;-88
2021/09/23 08:11:46;171084.00;0.57;296.13;0.00;0.00;0.62;;;;;22.70;1.00;;;;;;2273760;61;1345;-88
2021/09/23 08:14:15;178649.00;0.60;309.16;0.00;0.00;0.62;;;;;23.30;1.00;;;;;;2273659;61;1000;-88
2021/09/23 08:16:43;219467.00;0.73;379.43;0.00;0.00;0.62;;;;;23.60;1.00;;;;;;2280817;60;1745;-88
2021/09/23 08:19:10;418853.00;1.40;722.22;0.00;0.00;0.62;;;;;23.50;1.00;;;;;;2280717;60;1222;-89
2021/09/23 08:21:37;188946.00;0.63;326.89;0.00;0.00;0.62;;;;;23.30;1.00;;;;;;2280649;60;1383;-89
2021/09/23 08:24:05;235274.00;0.78;406.62;0.00;0.00;0.62;;;;;23.10;1.00;;;;;;2280532;61;1116;-89
2021/09/23 08:26:32;275603.00;0.92;475.98;0.00;0.00;0.62;;;;;23.50;1.00;;;;;;2280547;60;1989;-89
2021/09/23 08:28:59;311585.00;1.04;537.83;0.00;0.00;0.62;;;;;23.20;1.00;;;;;;2280632;61;1102;-89
2021/09/23 08:31:28;167174.00;0.56;289.40;0.00;0.00;0.62;;;;;23.10;1.00;;;;;;2280634;60;1297;-88
2021/09/23 08:33:55;320811.00;1.07;553.69;0.00;0.00;0.62;;;;;22.70;1.00;;;;;;2280541;60;966;-88
2021/09/23 08:36:22;217383.00;0.72;375.84;0.00;0.00;0.62;;;;;22.90;1.00;;;;;;2280186;61;1446;-89
2021/09/23 08:38:50;241521.00;0.81;417.37;0.00;0.00;0.62;;;;;23.00;1.00;;;;;;2280518;60;1049;-88
2021/09/23 08:41:18;225406.00;0.75;389.65;0.00;0.00;0.62;;;;;22.30;1.00;;;;;;2280495;60;1368;-88
2021/09/23 08:43:45;275202.00;0.92;475.29;0.00;0.00;0.62;;;;;21.90;1.00;;;;;;2280589;61;1102;-89
2021/09/23 08:46:12;486519.00;1.62;838.62;0.00;0.00;0.62;;;;;21.50;1.00;;;;;;2279633;61;1921;-89
2021/09/23 08:48:40;194613.00;0.65;336.65;0.00;0.00;0.62;;;;;20.90;1.00;;;;;;2280213;60;1122;-89
2021/09/23 08:51:07;190941.00;0.64;330.33;0.00;0.00;0.62;;;;;20.70;1.00;;;;;;2280552;61;1269;-89
2021/09/23 08:53:34;285990.00;0.95;493.84;0.00;0.00;0.62;;;;;21.00;1.00;;;;;;2280438;60;1147;-87
2021/09/23 08:56:05;315771.00;1.05;545.03;0.00;0.00;0.62;;;;;21.10;1.00;;;;;;2280431;60;1104;-88
2021/09/23 08:58:33;272507.00;0.91;470.65;0.00;0.00;0.62;;;;;21.10;1.00;;;;;;2279889;61;1138;-89
2021/09/23 09:01:06;538758.00;1.80;928.58;20262.00;0.07;35.72;;;;;20.90;1.00;;;;;;2278936;61;1041;-89
2021/09/23 09:03:34;646596.00;2.16;1114.75;37394.00;0.12;65.38;;;;;20.70;1.00;;;;;;2272234;61;1144;-89
2021/09/23 09:06:07;627211.00;2.09;1081.23;57054.00;0.19;99.38;;;;;20.20;1.00;;;;;;2272653;61;1992;-89
2021/09/23 09:08:36;581250.00;1.94;1001.86;14576.00;0.05;25.88;;;;;20.20;1.00;;;;;;2271309;61;1074;-89
2021/09/23 09:11:08;659783.00;2.20;1137.57;2733.00;0.01;5.36;;;;;20.60;1.00;;;;;;2272004;61;1186;-89
2021/09/23 09:13:37;150665.00;0.50;260.95;0.00;0.00;0.62;;;;;21.00;1.00;;;;;;2271825;61;1049;-88
2021/09/23 09:16:07;359097.00;1.20;619.50;0.00;0.00;0.62;;;;;20.50;1.00;;;;;;2271323;61;1166;-89
2021/09/23 09:18:35;787624.00;2.63;1359.55;40542.00;0.14;70.83;;;;;20.50;1.00;;;;;;2261765;61;1070;-89
2021/09/23 09:21:07;894504.00;2.98;1546.47;82584.00;0.28;143.50;;;;;20.90;1.00;;;;;;2271804;61;1065;-89
2021/09/23 09:23:42;1010758.00;3.37;1751.53;72586.00;0.24;126.23;;;;;21.30;1.00;;;;;;2263776;61;962;-89
2021/09/23 09:26:09;872909.00;2.91;1508.59;19706.00;0.07;34.76;;;;;21.70;1.00;;;;;;2259036;61;1985;-89
2021/09/23 09:28:47;1340850.00;4.47;2347.06;168824.00;0.56;292.24;;;;;22.00;1.00;;;;;;2268336;61;1024;-89
2021/09/23 09:31:14;737703.00;2.46;1272.68;0.00;0.00;0.62;;;;;22.00;1.00;;;;;;2271751;61;1395;-89
2021/09/23 09:33:44;1298478.00;4.33;2269.32;273117.00;0.91;471.70;;;;;22.30;1.00;;;;;;2263431;61;1051;-90
2021/09/23 09:36:31;1022002.00;3.41;1771.48;274179.00;0.91;473.53;;;;;22.40;1.00;;;;;;2263119;61;1087;-89
2021/09/23 09:39:01;409460.00;1.36;706.07;47965.00;0.16;83.67;;;;;22.40;1.00;;;;;;2263026;61;1200;-89
2021/09/23 09:41:30;243745.00;0.81;421.19;0.00;0.00;0.62;;;;;22.50;1.00;;;;;;2266355;61;1398;-89
2021/09/23 09:44:01;494855.00;1.65;852.97;0.00;0.00;0.62;;;;;22.50;1.00;;;;;;2271001;61;1065;-89
2021/09/23 09:46:31;519380.00;1.73;895.20;63502.00;0.21;110.53;;;;;22.60;1.00;;;;;;2270673;61;2002;-89
2021/09/23 09:49:00;690791.00;2.30;1191.27;27320.00;0.09;47.94;;;;;22.50;1.00;;;;;;2270621;61;1136;-89
2021/09/23 09:51:38;729782.00;2.43;1258.92;102000.00;0.34;177.02;;;;;22.70;1.00;;;;;;2274824;61;1661;-89